Time;durP1;ratioP1;P1;durP2;ratioP2;P2;SDS_P1;SDS_P2;PMS_P1;PMS_P2;Temp;Humidity;BMP_temperature;BMP_pressure;BME280_temperature;BME280_humidity;BME280_pressure;Samples;Min_cycle;Max_cycle;Signal;HPM_P1;HPM_P2
2021/12/14 00:01:10;;;;;;;;;;;25.00;35.30;;;;;;5083044;28;19915;-80
2021/12/14 00:03:39;;;;;;;;;;;25.00;35.30;;;;;;5099750;28;19912;-79
2021/12/14 00:06:04;;;;;;;;;;;25.00;35.40;;;;;;5099507;28;19994;-81
2021/12/14 00:08:36;;;;;;;;;;;25.00;35.40;;;;;;5098941;28;19943;-81
2021/12/14 00:13:43;;;;;;;;;;;25.00;35.50;;;;;;5098781;28;19907;-82
2021/12/14 00:16:09;;;;;;;;;;;25.00;35.50;;;;;;5101204;28;19995;-82
2021/12/14 00:18:37;;;;;;;;;;;25.00;35.50;;;;;;5082935;28;19958;-85
2021/12/14 00:21:08;;;;;;;;;;;25.00;35.50;;;;;;5082764;28;19960;-81
2021/12/14 00:26:17;;;;;;;;;;;25.00;35.60;;;;;;5101773;28;19926;-81
2021/12/14 00:28:43;;;;;;;;;;;25.00;35.60;;;;;;5098633;28;19912;-81
2021/12/14 00:31:14;;;;;;;;;;;25.00;35.60;;;;;;5081623;28;20010;-80
2021/12/14 00:33:40;;;;;;;;;;;25.10;35.70;;;;;;5082454;28;20329;-81
2021/12/14 00:36:06;;;;;;;;;;;25.00;35.60;;;;;;5098771;28;19926;-84
2021/12/14 00:38:35;;;;;;;;;;;25.10;35.70;;;;;;5099074;28;19943;-81
2021/12/14 00:41:04;;;;;;;;;;;25.00;35.70;;;;;;5082188;28;19915;-79
2021/12/14 00:43:30;;;;;;;;;;;25.10;35.80;;;;;;5098324;28;20352;-84
2021/12/14 00:45:55;;;;;;;;;;;25.10;35.80;;;;;;5081533;28;19933;-80
2021/12/14 00:48:21;;;;;;;;;;;25.10;35.80;;;;;;5098585;28;19908;-80
2021/12/14 00:50:50;;;;;;;;;;;25.10;35.80;;;;;;5081677;28;19907;-80
2021/12/14 00:53:15;;;;;;;;;;;25.10;35.80;;;;;;5098528;28;20301;-81
2021/12/14 00:55:42;;;;;;;;;;;25.10;35.80;;;;;;5098951;28;19919;-81
2021/12/14 00:58:12;;;;;;;;;;;25.10;35.90;;;;;;5098589;28;19908;-80
2021/12/14 01:00:42;;;;;;;;;;;25.10;35.90;;;;;;5099135;28;19939;-83
2021/12/14 01:03:10;;;;;;;;;;;25.10;35.90;;;;;;5098429;28;19979;-80
2021/12/14 01:05:37;;;;;;;;;;;25.10;35.90;;;;;;5098577;28;20288;-80
2021/12/14 01:08:04;;;;;;;;;;;25.10;36.00;;;;;;5081369;28;20340;-78
2021/12/14 01:10:36;;;;;;;;;;;25.10;35.90;;;;;;5098036;28;20019;-81
2021/12/14 01:13:07;;;;;;;;;;;25.10;36.00;;;;;;5081336;28;20007;-83
2021/12/14 01:16:31;;;;;;;;;;;25.10;36.00;;;;;;5099443;28;19915;-80
2021/12/14 01:19:13;;;;;;;;;;;25.10;36.10;;;;;;5084902;28;19935;-81
2021/12/14 01:22:16;;;;;;;;;;;25.00;36.00;;;;;;5100119;28;19975;-80
2021/12/14 01:27:18;;;;;;;;;;;25.10;36.10;;;;;;5102999;28;20317;-82
2021/12/14 01:29:43;;;;;;;;;;;25.10;36.10;;;;;;5102009;28;19912;-81
2021/12/14 01:32:12;;;;;;;;;;;25.10;36.10;;;;;;5085009;28;19907;-82
2021/12/14 01:34:38;;;;;;;;;;;25.10;36.20;;;;;;5084709;28;20423;-83
2021/12/14 01:37:07;;;;;;;;;;;25.10;36.20;;;;;;5084317;28;19980;-80
2021/12/14 01:39:48;;;;;;;;;;;25.10;36.20;;;;;;5101583;28;19907;-81
2021/12/14 01:42:15;;;;;;;;;;;25.10;36.20;;;;;;5103509;28;19911;-80
2021/12/14 01:44:45;;;;;;;;;;;25.10;36.20;;;;;;5100689;28;20015;-79
2021/12/14 01:47:17;;;;;;;;;;;25.10;36.30;;;;;;5101979;28;19973;-84
2021/12/14 01:49:43;;;;;;;;;;;25.10;36.20;;;;;;5101342;28;20007;-81
2021/12/14 01:52:11;;;;;;;;;;;25.10;36.20;;;;;;5084116;28;19950;-81
2021/12/14 01:54:39;;;;;;;;;;;25.10;36.20;;;;;;5097597;28;19908;-79
2021/12/14 01:57:07;;;;;;;;;;;25.10;36.30;;;;;;5080843;28;19908;-82
2021/12/14 01:59:38;;;;;;;;;;;25.10;36.20;;;;;;5097493;28;19912;-79
2021/12/14 02:02:19;;;;;;;;;;;25.10;36.30;;;;;;5097513;28;19912;-80
2021/12/14 02:04:45;;;;;;;;;;;25.10;36.30;;;;;;5082684;28;19912;-81
2021/12/14 02:07:11;;;;;;;;;;;25.10;36.40;;;;;;5080539;28;19908;-82
2021/12/14 02:09:37;;;;;;;;;;;25.10;36.30;;;;;;5080767;28;19919;-80
2021/12/14 02:12:10;;;;;;;;;;;25.00;36.30;;;;;;5097269;28;20398;-80
2021/12/14 02:14:35;;;;;;;;;;;25.10;36.40;;;;;;5097622;28;19908;-80
2021/12/14 02:17:01;;;;;;;;;;;25.00;36.30;;;;;;5097256;28;19919;-81
2021/12/14 02:19:27;;;;;;;;;;;25.10;36.40;;;;;;5080666;28;19919;-82
2021/12/14 02:21:53;;;;;;;;;;;25.10;36.40;;;;;;5097752;28;20288;-80
2021/12/14 02:24:22;;;;;;;;;;;25.10;36.40;;;;;;5096931;28;19912;-83
2021/12/14 02:26:49;;;;;;;;;;;25.10;36.40;;;;;;5096940;28;20006;-81
2021/12/14 02:29:34;;;;;;;;;;;25.10;36.40;;;;;;5096923;28;19999;-82
2021/12/14 02:32:04;;;;;;;;;;;25.10;36.40;;;;;;5080173;28;20494;-84
2021/12/14 02:34:32;;;;;;;;;;;25.10;36.40;;;;;;5079978;28;19912;-80
2021/12/14 02:36:57;;;;;;;;;;;25.10;36.50;;;;;;5096451;28;20329;-80
2021/12/14 02:42:22;;;;;;;;;;;25.10;36.50;;;;;;5052766;28;19987;-83
2021/12/14 02:44:53;;;;;;;;;;;25.10;36.50;;;;;;5096252;28;20030;-82
2021/12/14 02:47:22;;;;;;;;;;;25.10;36.60;;;;;;5079844;28;19918;-79
2021/12/14 02:49:48;;;;;;;;;;;25.10;36.60;;;;;;5079494;28;20359;-80
2021/12/14 02:52:25;;;;;;;;;;;25.10;36.50;;;;;;5097056;28;19908;-77
2021/12/14 02:54:54;;;;;;;;;;;25.10;36.60;;;;;;5096670;28;20366;-85
2021/12/14 02:57:21;;;;;;;;;;;25.10;36.60;;;;;;5096487;28;20337;-83
2021/12/14 02:59:47;;;;;;;;;;;25.10;36.60;;;;;;5096349;28;19965;-85
2021/12/14 03:02:14;;;;;;;;;;;25.10;36.60;;;;;;5096664;28;19908;-80
2021/12/14 03:04:41;;;;;;;;;;;25.10;36.60;;;;;;5079449;28;19918;-82
2021/12/14 03:07:06;;;;;;;;;;;25.10;36.60;;;;;;5096539;28;20339;-80
2021/12/14 03:09:39;;;;;;;;;;;25.10;36.60;;;;;;5079302;28;19908;-81
2021/12/14 03:12:14;;;;;;;;;;;25.00;36.50;;;;;;5079948;28;19908;-82
2021/12/14 03:14:42;;;;;;;;;;;25.10;36.60;;;;;;5078987;28;19908;-80
2021/12/14 03:17:10;;;;;;;;;;;25.10;36.60;;;;;;5079344;28;19908;-83
2021/12/14 03:19:35;;;;;;;;;;;25.10;36.60;;;;;;5079751;28;20007;-84
2021/12/14 03:22:01;;;;;;;;;;;25.10;36.60;;;;;;5078954;28;19978;-81
2021/12/14 03:24:27;;;;;;;;;;;25.10;36.60;;;;;;5095762;28;19912;-80
2021/12/14 03:26:55;;;;;;;;;;;25.10;36.60;;;;;;5095994;28;19994;-83
2021/12/14 03:29:23;;;;;;;;;;;25.10;36.60;;;;;;5095989;28;19919;-84
2021/12/14 03:31:50;;;;;;;;;;;25.10;36.70;;;;;;5095696;28;19908;-80
2021/12/14 03:34:22;;;;;;;;;;;25.10;36.70;;;;;;5095725;28;19907;-84
2021/12/14 03:36:57;;;;;;;;;;;25.00;36.60;;;;;;5078981;28;19919;-83
2021/12/14 03:39:48;;;;;;;;;;;25.10;36.70;;;;;;5095601;28;19995;-84
2021/12/14 03:42:14;;;;;;;;;;;25.00;36.60;;;;;;5094420;28;19908;-80
2021/12/14 03:44:41;;;;;;;;;;;25.00;36.70;;;;;;5094966;28;19931;-79
2021/12/14 03:47:11;;;;;;;;;;;25.00;36.70;;;;;;5078386;28;19908;-82
2021/12/14 03:49:43;;;;;;;;;;;25.10;36.70;;;;;;5094618;28;19920;-83
2021/12/14 03:52:09;;;;;;;;;;;25.10;36.80;;;;;;5095979;28;19908;-80
2021/12/14 03:54:34;;;;;;;;;;;25.00;36.70;;;;;;5095120;28;19908;-82
2021/12/14 03:57:03;;;;;;;;;;;25.10;36.80;;;;;;5095310;28;19908;-82
2021/12/14 03:59:31;;;;;;;;;;;25.10;36.80;;;;;;5078163;28;19931;-83
2021/12/14 04:01:57;;;;;;;;;;;25.10;36.80;;;;;;5095430;28;19939;-84
2021/12/14 04:04:24;;;;;;;;;;;25.10;36.80;;;;;;5078367;28;19959;-85
2021/12/14 04:06:51;;;;;;;;;;;25.10;36.80;;;;;;5078122;28;19912;-80
2021/12/14 04:09:17;;;;;;;;;;;25.10;36.80;;;;;;5095163;28;19908;-80
2021/12/14 04:11:42;;;;;;;;;;;25.10;36.80;;;;;;5094954;28;20368;-82
2021/12/14 04:14:10;;;;;;;;;;;25.00;36.80;;;;;;5095590;28;19908;-80
2021/12/14 04:16:40;;;;;;;;;;;25.00;36.80;;;;;;5095769;28;19908;-81
2021/12/14 04:19:06;;;;;;;;;;;25.10;36.80;;;;;;5078590;28;20337;-81
2021/12/14 04:21:35;;;;;;;;;;;25.00;36.80;;;;;;5078127;28;19912;-82
2021/12/14 04:24:02;;;;;;;;;;;25.00;36.80;;;;;;5095757;28;19920;-80
2021/12/14 04:26:31;;;;;;;;;;;25.00;36.80;;;;;;5078082;28;20003;-80
2021/12/14 04:28:59;;;;;;;;;;;25.00;36.80;;;;;;5094470;28;19919;-81
2021/12/14 04:31:29;;;;;;;;;;;25.00;36.80;;;;;;5094635;28;20303;-83
2021/12/14 04:33:55;;;;;;;;;;;25.00;36.80;;;;;;5077814;28;19908;-85
2021/12/14 04:36:23;;;;;;;;;;;25.10;36.80;;;;;;5077671;28;19915;-81
2021/12/14 04:39:00;;;;;;;;;;;25.00;36.80;;;;;;5094745;28;19912;-82
2021/12/14 04:52:29;;;;;;;;;;;25.00;36.90;;;;;;5094528;28;20011;-82
2021/12/14 04:54:58;;;;;;;;;;;25.00;37.00;;;;;;5095261;28;20340;-79
2021/12/14 04:57:29;;;;;;;;;;;25.00;37.00;;;;;;5078285;28;19912;-80
2021/12/14 04:59:56;;;;;;;;;;;25.00;36.90;;;;;;5095576;28;19966;-79
2021/12/14 05:02:29;;;;;;;;;;;25.00;36.90;;;;;;5098386;28;19962;-80
2021/12/14 05:04:57;;;;;;;;;;;25.00;36.90;;;;;;5098271;28;19912;-83
2021/12/14 05:09:57;;;;;;;;;;;25.00;36.90;;;;;;5098448;28;20268;-82
2021/12/14 05:12:24;;;;;;;;;;;25.00;36.90;;;;;;5081419;28;20016;-84
2021/12/14 05:14:49;;;;;;;;;;;25.00;37.00;;;;;;5081197;28;19977;-82
2021/12/14 05:17:16;;;;;;;;;;;25.00;36.90;;;;;;5097956;28;20329;-81
2021/12/14 05:19:42;;;;;;;;;;;25.00;37.00;;;;;;5081042;28;20349;-81
2021/12/14 05:22:13;;;;;;;;;;;25.00;37.00;;;;;;5097866;28;19951;-79
2021/12/14 05:24:39;;;;;;;;;;;25.00;37.00;;;;;;5081042;28;19912;-79
2021/12/14 05:27:05;;;;;;;;;;;25.00;37.00;;;;;;5097929;28;19947;-82
2021/12/14 05:29:31;;;;;;;;;;;25.00;37.00;;;;;;5097824;28;19957;-81
2021/12/14 05:31:57;;;;;;;;;;;25.00;37.00;;;;;;5097947;28;19908;-83
2021/12/14 05:34:23;;;;;;;;;;;25.00;37.00;;;;;;5080845;28;20015;-81
2021/12/14 05:36:49;;;;;;;;;;;25.00;37.00;;;;;;5098488;28;19919;-82
2021/12/14 05:44:16;;;;;;;;;;;25.00;37.00;;;;;;5097716;28;19928;-83
2021/12/14 05:46:49;;;;;;;;;;;25.00;37.00;;;;;;5080796;28;19912;-80
2021/12/14 05:49:15;;;;;;;;;;;25.00;37.00;;;;;;5081747;28;19908;-79
2021/12/14 05:51:41;;;;;;;;;;;25.00;37.00;;;;;;5097390;28;19915;-80
2021/12/14 05:54:06;;;;;;;;;;;25.00;37.00;;;;;;5097062;28;20335;-80
2021/12/14 05:56:37;;;;;;;;;;;25.00;37.00;;;;;;5097234;28;19926;-84
2021/12/14 05:59:02;;;;;;;;;;;25.00;37.00;;;;;;5080667;28;19908;-85
2021/12/14 06:01:30;;;;;;;;;;;25.00;37.00;;;;;;5097349;28;19908;-82
2021/12/14 06:03:56;;;;;;;;;;;25.00;37.00;;;;;;5097053;28;19923;-79
2021/12/14 06:06:23;;;;;;;;;;;25.00;37.00;;;;;;5097095;28;19912;-80
2021/12/14 06:08:49;;;;;;;;;;;25.00;37.00;;;;;;5096842;28;19966;-81
2021/12/14 06:11:21;;;;;;;;;;;25.00;37.00;;;;;;5080053;28;19912;-84
2021/12/14 06:13:46;;;;;;;;;;;24.30;34.90;;;;;;5097563;28;19970;-80
2021/12/14 06:16:26;;;;;;;;;;;22.20;34.10;;;;;;5080732;28;19916;-82
2021/12/14 06:18:52;;;;;;;;;;;21.50;33.30;;;;;;5097441;28;19951;-81
2021/12/14 06:21:27;;;;;;;;;;;21.50;36.00;;;;;;5080303;28;20003;-79
2021/12/14 06:23:59;;;;;;;;;;;22.00;35.90;;;;;;5098021;28;20436;-80
2021/12/14 06:26:33;;;;;;;;;;;22.50;35.80;;;;;;5097473;28;19908;-80
2021/12/14 06:29:06;;;;;;;;;;;22.80;35.90;;;;;;5079994;28;20345;-78
2021/12/14 06:31:34;;;;;;;;;;;23.00;35.90;;;;;;5080501;28;19908;-79
2021/12/14 06:34:12;;;;;;;;;;;23.20;35.80;;;;;;5097623;28;20229;-83
2021/12/14 06:37:03;;;;;;;;;;;23.40;35.80;;;;;;5097275;28;19951;-78
2021/12/14 06:39:29;;;;;;;;;;;23.50;35.60;;;;;;5096741;28;19912;-81
2021/12/14 06:42:04;;;;;;;;;;;23.70;35.60;;;;;;5080045;28;20298;-78
2021/12/14 06:44:32;;;;;;;;;;;23.70;35.60;;;;;;5097456;28;19920;-83
2021/12/14 06:46:58;;;;;;;;;;;23.80;35.60;;;;;;5096782;28;20339;-80
2021/12/14 06:49:26;;;;;;;;;;;23.90;35.50;;;;;;5080172;28;19976;-80
2021/12/14 06:51:52;;;;;;;;;;;23.90;35.50;;;;;;5097033;28;19918;-81
2021/12/14 06:54:19;;;;;;;;;;;24.00;35.50;;;;;;5099716;28;19962;-79
2021/12/14 06:56:54;;;;;;;;;;;24.10;35.80;;;;;;5082948;28;19908;-81
2021/12/14 06:59:25;;;;;;;;;;;24.10;36.20;;;;;;5099564;28;19943;-80
2021/12/14 07:01:56;;;;;;;;;;;24.10;36.10;;;;;;5099349;28;19919;-78
2021/12/14 07:04:23;;;;;;;;;;;24.20;36.00;;;;;;5100488;28;19913;-79
2021/12/14 07:06:55;;;;;;;;;;;24.20;36.10;;;;;;5100477;28;19908;-78
2021/12/14 07:09:28;;;;;;;;;;;24.20;38.00;;;;;;5100217;28;19966;-81
2021/12/14 07:12:00;;;;;;;;;;;24.30;39.70;;;;;;5099621;28;20272;-76
2021/12/14 07:14:30;;;;;;;;;;;24.30;39.50;;;;;;5100803;28;19912;-80
2021/12/14 07:16:57;;;;;;;;;;;24.30;44.30;;;;;;5100538;28;19908;-79
2021/12/14 07:19:46;;;;;;;;;;;24.40;45.50;;;;;;5099927;28;19948;-83
2021/12/14 07:22:32;;;;;;;;;;;24.40;47.10;;;;;;5089765;28;19916;-79
2021/12/14 07:25:00;;;;;;;;;;;24.40;46.60;;;;;;5095852;28;19912;-81
2021/12/14 07:27:29;;;;;;;;;;;24.50;46.10;;;;;;5098708;28;19908;-79
2021/12/14 07:30:08;;;;;;;;;;;24.50;45.50;;;;;;5080794;28;19943;-79
2021/12/14 07:32:49;;;;;;;;;;;24.50;45.30;;;;;;5081836;28;19912;-80
2021/12/14 07:35:18;;;;;;;;;;;24.50;45.00;;;;;;5083147;28;19908;-79
2021/12/14 07:37:49;;;;;;;;;;;24.50;45.20;;;;;;5102392;28;19934;-77
2021/12/14 07:40:16;;;;;;;;;;;24.40;42.70;;;;;;5104381;28;19968;-78
2021/12/14 07:42:42;;;;;;;;;;;24.20;42.40;;;;;;5107419;28;19908;-79
2021/12/14 07:45:10;;;;;;;;;;;24.10;42.50;;;;;;5084731;28;20371;-78
2021/12/14 07:47:35;;;;;;;;;;;24.10;42.20;;;;;;5097085;28;20325;-79
2021/12/14 07:50:03;;;;;;;;;;;23.80;41.10;;;;;;5095949;28;19915;-80
2021/12/14 07:52:35;;;;;;;;;;;23.50;42.00;;;;;;5096566;28;19981;-79
2021/12/14 07:55:04;;;;;;;;;;;23.00;43.30;;;;;;5095963;28;19914;-77
2021/12/14 07:57:30;;;;;;;;;;;22.60;43.40;;;;;;5096133;28;19962;-78
2021/12/14 08:00:05;;;;;;;;;;;22.20;43.90;;;;;;5095749;28;19912;-77
2021/12/14 08:02:34;;;;;;;;;;;22.00;44.40;;;;;;5095876;28;19957;-77
2021/12/14 08:05:00;;;;;;;;;;;21.70;44.40;;;;;;5096260;28;19937;-77
2021/12/14 08:07:34;;;;;;;;;;;21.50;44.50;;;;;;5095985;28;19909;-78
2021/12/14 08:10:19;;;;;;;;;;;21.30;42.50;;;;;;5096319;28;19994;-78
2021/12/14 08:12:47;;;;;;;;;;;21.30;43.70;;;;;;5096386;28;19908;-78
2021/12/14 08:15:12;;;;;;;;;;;21.30;43.40;;;;;;5096125;28;19998;-78
2021/12/14 08:17:40;;;;;;;;;;;21.00;43.80;;;;;;5095050;28;19947;-77
2021/12/14 08:20:10;;;;;;;;;;;20.90;43.50;;;;;;5095205;28;19908;-78
2021/12/14 08:22:38;;;;;;;;;;;20.90;43.80;;;;;;5095898;28;19918;-78
2021/12/14 08:25:07;;;;;;;;;;;20.90;42.70;;;;;;5094736;28;19916;-78
2021/12/14 08:27:34;;;;;;;;;;;20.40;43.70;;;;;;5095592;28;19909;-78
2021/12/14 08:30:03;;;;;;;;;;;20.40;43.10;;;;;;5095334;28;19908;-79
2021/12/14 08:32:30;;;;;;;;;;;20.60;42.80;;;;;;5096054;28;19908;-78
2021/12/14 08:34:58;;;;;;;;;;;20.80;41.90;;;;;;5077690;28;19908;-77
2021/12/14 08:37:27;;;;;;;;;;;20.80;41.20;;;;;;5095509;28;19923;-77
2021/12/14 08:39:55;;;;;;;;;;;20.80;41.60;;;;;;5095006;28;20305;-77
2021/12/14 08:42:27;;;;;;;;;;;20.90;42.00;;;;;;5095637;28;19912;-78
2021/12/14 08:44:58;;;;;;;;;;;21.00;42.10;;;;;;5077726;28;20366;-77
2021/12/14 08:47:33;;;;;;;;;;;21.10;41.10;;;;;;5094515;28;19916;-77
2021/12/14 08:50:04;;;;;;;;;;;21.00;41.30;;;;;;5095021;28;19923;-76
2021/12/14 08:52:32;;;;;;;;;;;20.90;40.20;;;;;;5095475;28;19912;-76
2021/12/14 08:54:58;;;;;;;;;;;20.90;41.90;;;;;;5095387;28;19911;-77
2021/12/14 08:57:27;;;;;;;;;;;20.70;42.20;;;;;;5077220;28;19913;-77
2021/12/14 08:59:53;;;;;;;;;;;20.80;42.10;;;;;;5094306;28;19973;-77
2021/12/14 09:02:19;;;;;;;;;;;20.80;42.50;;;;;;5095172;28;19969;-77
2021/12/14 09:04:53;;;;;;;;;;;20.80;42.30;;;;;;5094436;28;19967;-78
2021/12/14 09:07:22;;;;;;;;;;;20.70;40.90;;;;;;5094358;28;20230;-75
2021/12/14 09:09:48;;;;;;;;;;;20.70;41.90;;;;;;5095319;28;19912;-76
2021/12/14 09:12:34;;;;;;;;;;;20.70;41.30;;;;;;5095120;28;19923;-77
2021/12/14 09:15:12;;;;;;;;;;;20.70;41.10;;;;;;5094621;28;19940;-76
2021/12/14 09:17:37;;;;;;;;;;;20.90;42.30;;;;;;5094367;28;20325;-76
2021/12/14 09:20:05;;;;;;;;;;;21.20;41.70;;;;;;5094351;28;19943;-78
2021/12/14 09:22:31;;;;;;;;;;;21.40;40.80;;;;;;5094447;28;19908;-78
2021/12/14 09:24:57;;;;;;;;;;;21.30;40.40;;;;;;5095155;28;20017;-77
2021/12/14 09:27:24;;;;;;;;;;;21.20;40.10;;;;;;5095018;28;19947;-77
2021/12/14 09:29:54;;;;;;;;;;;21.00;40.00;;;;;;5095274;28;19931;-76
2021/12/14 09:32:27;;;;;;;;;;;21.00;39.40;;;;;;5077659;28;19998;-77
2021/12/14 09:34:53;;;;;;;;;;;21.00;40.30;;;;;;5094504;28;19944;-77
2021/12/14 09:37:21;;;;;;;;;;;20.90;40.10;;;;;;5095121;28;19908;-76
2021/12/14 09:39:48;;;;;;;;;;;20.80;41.10;;;;;;5077996;28;19908;-78
2021/12/14 09:42:17;;;;;;;;;;;20.70;43.50;;;;;;5094394;28;19958;-78
2021/12/14 09:44:43;;;;;;;;;;;20.40;43.60;;;;;;5094431;28;20012;-77
2021/12/14 09:47:13;;;;;;;;;;;20.40;44.60;;;;;;5095925;28;19908;-78
2021/12/14 09:49:39;;;;;;;;;;;20.30;46.10;;;;;;5097988;28;19908;-78
2021/12/14 09:52:08;;;;;;;;;;;20.40;44.60;;;;;;5098103;28;19912;-78
2021/12/14 09:54:34;;;;;;;;;;;20.30;45.10;;;;;;5098767;28;19912;-77
2021/12/14 09:57:07;;;;;;;;;;;20.30;45.30;;;;;;5098730;28;19909;-80
2021/12/14 09:59:35;;;;;;;;;;;20.20;45.10;;;;;;5064561;28;20012;-79
2021/12/14 10:02:12;;;;;;;;;;;20.20;45.10;;;;;;5080875;28;19908;-82
2021/12/14 10:04:42;;;;;;;;;;;20.20;45.10;;;;;;5081222;28;19935;-78
2021/12/14 10:07:08;;;;;;;;;;;20.20;45.00;;;;;;5080863;28;19908;-77
2021/12/14 10:09:39;;;;;;;;;;;20.20;45.20;;;;;;5081117;28;19973;-80
2021/12/14 10:14:59;;;;;;;;;;;20.90;42.70;;;;;;5083693;28;20372;-81
2021/12/14 10:17:25;;;;;;;;;;;20.70;42.10;;;;;;5080827;28;20417;-78
2021/12/14 10:19:51;;;;;;;;;;;20.50;43.20;;;;;;5080697;28;19955;-77
2021/12/14 10:22:21;;;;;;;;;;;20.90;42.40;;;;;;5098288;28;19931;-76
2021/12/14 10:24:48;;;;;;;;;;;20.80;41.90;;;;;;5097959;28;19912;-77
2021/12/14 10:27:15;;;;;;;;;;;20.60;42.10;;;;;;5080099;28;19916;-79
2021/12/14 10:29:40;;;;;;;;;;;20.60;42.00;;;;;;5098379;28;19923;-77
2021/12/14 10:32:11;;;;;;;;;;;20.60;42.10;;;;;;5080233;28;19908;-79
2021/12/14 10:34:40;;;;;;;;;;;20.70;42.80;;;;;;5098116;28;19908;-77
2021/12/14 10:37:13;;;;;;;;;;;21.00;41.80;;;;;;5097992;28;19921;-78
2021/12/14 10:45:10;;;;;;;;;;;21.00;40.80;;;;;;5098046;28;20638;-77
2021/12/14 10:47:36;;;;;;;;;;;21.10;40.60;;;;;;5097691;28;19908;-76
2021/12/14 10:50:05;;;;;;;;;;;20.90;40.90;;;;;;5097517;28;19908;-76
2021/12/14 10:52:31;;;;;;;;;;;21.00;41.30;;;;;;5079905;28;19908;-77
2021/12/14 10:55:00;;;;;;;;;;;21.10;40.00;;;;;;5063302;28;19916;-77
2021/12/14 10:57:29;;;;;;;;;;;21.40;40.20;;;;;;5079740;28;19912;-77
2021/12/14 10:59:54;;;;;;;;;;;21.50;39.90;;;;;;5079573;28;19947;-76
2021/12/14 11:02:24;;;;;;;;;;;21.40;39.80;;;;;;5097499;28;19915;-77
2021/12/14 11:04:54;;;;;;;;;;;21.20;39.90;;;;;;5097346;28;19923;-78
2021/12/14 11:07:35;;;;;;;;;;;20.90;40.20;;;;;;5097578;28;20347;-78
2021/12/14 11:10:09;;;;;;;;;;;20.80;40.80;;;;;;5097315;28;19908;-77
2021/12/14 11:12:36;;;;;;;;;;;20.70;40.60;;;;;;5097505;28;19969;-76
2021/12/14 11:15:12;;;;;;;;;;;20.70;41.70;;;;;;5096819;28;19962;-77
2021/12/14 11:20:23;;;;;;;;;;;20.90;40.50;;;;;;5097211;28;20248;-77
2021/12/14 11:22:59;;;;;;;;;;;20.80;40.80;;;;;;5079334;28;19916;-75
2021/12/14 11:25:27;;;;;;;;;;;20.80;41.20;;;;;;5096823;28;19920;-76
2021/12/14 11:28:00;;;;;;;;;;;20.80;40.70;;;;;;5097025;28;20341;-77
2021/12/14 11:30:29;;;;;;;;;;;20.70;40.80;;;;;;5062751;28;20015;-77
2021/12/14 11:33:01;;;;;;;;;;;20.90;40.60;;;;;;5096717;28;19915;-78
2021/12/14 11:35:28;;;;;;;;;;;20.80;40.80;;;;;;5096898;28;20002;-78
2021/12/14 11:37:55;;;;;;;;;;;20.80;40.90;;;;;;5097876;28;19918;-80
2021/12/14 11:40:23;;;;;;;;;;;20.70;41.40;;;;;;5063737;28;19958;-83
2021/12/14 11:42:49;;;;;;;;;;;20.90;43.70;;;;;;5063801;28;19919;-79
2021/12/14 11:45:17;;;;;;;;;;;21.60;36.40;;;;;;5097852;28;20376;-79
2021/12/14 11:47:48;;;;;;;;;;;21.60;34.50;;;;;;5063308;28;20344;-82
2021/12/14 11:50:17;;;;;;;;;;;21.50;35.60;;;;;;5097746;28;19908;-83
2021/12/14 11:52:50;;;;;;;;;;;21.20;36.50;;;;;;5097963;28;19908;-80
2021/12/14 11:55:31;;;;;;;;;;;21.00;37.40;;;;;;5097918;28;19908;-83
2021/12/14 11:58:11;;;;;;;;;;;20.80;37.80;;;;;;5097452;28;19909;-80
2021/12/14 12:00:39;;;;;;;;;;;20.90;38.20;;;;;;5097555;28;19908;-79
2021/12/14 12:03:23;;;;;;;;;;;21.00;38.10;;;;;;5062999;28;19912;-83
2021/12/14 12:06:01;;;;;;;;;;;20.90;38.50;;;;;;5080875;28;19923;-79
2021/12/14 12:11:11;;;;;;;;;;;21.30;38.10;;;;;;5100886;28;19918;-80
2021/12/14 12:13:38;;;;;;;;;;;21.30;38.30;;;;;;5066508;28;20003;-83
2021/12/14 12:16:14;;;;;;;;;;;21.40;38.10;;;;;;5082713;28;19998;-80
2021/12/14 12:18:41;;;;;;;;;;;21.60;38.30;;;;;;5083458;28;19912;-79
2021/12/14 12:21:09;;;;;;;;;;;21.80;37.70;;;;;;5082084;28;19908;-82
2021/12/14 12:23:35;;;;;;;;;;;22.00;37.90;;;;;;5080274;28;19923;-79
2021/12/14 12:26:08;;;;;;;;;;;22.00;37.60;;;;;;5097422;28;20355;-79
2021/12/14 12:28:37;;;;;;;;;;;21.90;37.20;;;;;;5098957;28;19908;-79
2021/12/14 12:31:12;;;;;;;;;;;21.70;38.00;;;;;;5078991;28;19995;-77
2021/12/14 12:33:38;;;;;;;;;;;21.80;37.80;;;;;;5097360;28;19953;-80
2021/12/14 12:36:04;;;;;;;;;;;21.80;37.80;;;;;;5097254;28;19912;-79
2021/12/14 12:38:46;;;;;;;;;;;21.70;37.30;;;;;;5097865;28;19982;-81
2021/12/14 12:41:24;;;;;;;;;;;21.70;37.50;;;;;;5097400;28;19919;-81
2021/12/14 12:43:51;;;;;;;;;;;21.70;38.00;;;;;;5097359;28;19931;-78
2021/12/14 12:46:18;;;;;;;;;;;21.80;37.70;;;;;;5079771;28;19908;-78
2021/12/14 12:49:02;;;;;;;;;;;21.80;37.60;;;;;;5097178;28;19998;-77
2021/12/14 12:52:03;;;;;;;;;;;22.00;37.90;;;;;;5078811;28;20007;-81
2021/12/14 12:54:34;;;;;;;;;;;22.00;37.20;;;;;;5036484;28;19908;-81
2021/12/14 12:57:12;;;;;;;;;;;22.00;37.30;;;;;;5079667;28;19908;-76
2021/12/14 12:59:43;;;;;;;;;;;22.00;37.10;;;;;;5079530;28;19919;-81
2021/12/14 13:02:15;;;;;;;;;;;21.90;37.50;;;;;;5096234;28;19908;-78
2021/12/14 13:04:41;;;;;;;;;;;21.90;37.40;;;;;;5097293;28;19912;-82
2021/12/14 13:07:07;;;;;;;;;;;21.90;37.50;;;;;;5079377;28;19947;-81
2021/12/14 13:09:52;;;;;;;;;;;21.80;37.60;;;;;;5096079;28;19961;-79
2021/12/14 13:12:37;;;;;;;;;;;21.80;37.70;;;;;;5078685;28;20000;-78
2021/12/14 13:15:03;;;;;;;;;;;21.70;37.80;;;;;;5078135;28;20286;-79
2021/12/14 13:17:28;;;;;;;;;;;21.50;37.90;;;;;;5095634;28;20415;-78
2021/12/14 13:20:00;;;;;;;;;;;21.60;38.00;;;;;;5078069;28;20391;-77
2021/12/14 13:22:25;;;;;;;;;;;21.70;38.30;;;;;;5101458;28;20008;-79
2021/12/14 13:24:51;;;;;;;;;;;21.60;37.70;;;;;;5087516;28;19963;-76
2021/12/14 13:27:21;;;;;;;;;;;21.70;37.90;;;;;;5085396;28;19935;-80
2021/12/14 13:29:47;;;;;;;;;;;21.70;37.80;;;;;;5082125;28;19908;-79
2021/12/14 13:32:25;;;;;;;;;;;21.60;37.90;;;;;;5099607;28;19927;-78
2021/12/14 13:34:53;;;;;;;;;;;21.50;37.80;;;;;;5099593;28;19908;-77
2021/12/14 13:37:25;;;;;;;;;;;21.50;37.90;;;;;;5081988;28;19908;-79
2021/12/14 13:39:51;;;;;;;;;;;21.40;38.10;;;;;;5084708;28;19908;-78
2021/12/14 13:42:21;;;;;;;;;;;21.30;38.00;;;;;;5083358;28;19981;-79
2021/12/14 13:44:50;;;;;;;;;;;21.30;38.00;;;;;;5066632;28;19966;-78
2021/12/14 13:47:17;;;;;;;;;;;21.40;38.30;;;;;;5067501;28;20217;-77
2021/12/14 13:49:43;;;;;;;;;;;21.40;38.10;;;;;;5082089;28;19908;-80
2021/12/14 13:52:11;;;;;;;;;;;21.30;38.50;;;;;;5099287;28;19961;-78
2021/12/14 13:54:57;;;;;;;;;;;21.30;39.90;;;;;;5098769;28;19991;-80
2021/12/14 13:57:22;;;;;;;;;;;21.40;39.50;;;;;;5057573;28;19918;-79
2021/12/14 13:59:48;;;;;;;;;;;21.40;40.50;;;;;;5098956;28;20316;-77
2021/12/14 14:02:14;;;;;;;;;;;21.40;39.70;;;;;;5081476;28;20344;-78
2021/12/14 14:04:40;;;;;;;;;;;21.30;40.00;;;;;;5081023;28;19916;-77
2021/12/14 14:07:05;;;;;;;;;;;21.40;40.50;;;;;;5099032;28;19919;-81
2021/12/14 14:09:31;;;;;;;;;;;21.40;40.00;;;;;;5081085;28;20011;-78
2021/12/14 14:12:02;;;;;;;;;;;21.40;40.10;;;;;;5081372;28;20353;-76
2021/12/14 14:14:29;;;;;;;;;;;21.40;40.40;;;;;;5098499;28;20230;-79
2021/12/14 14:16:59;;;;;;;;;;;21.50;40.20;;;;;;5098702;28;20042;-76
2021/12/14 14:19:35;;;;;;;;;;;21.40;39.90;;;;;;5081263;28;20381;-81
2021/12/14 14:22:06;;;;;;;;;;;21.40;39.80;;;;;;5080991;28;19908;-80
2021/12/14 14:24:33;;;;;;;;;;;21.50;39.90;;;;;;5080962;28;19912;-79
2021/12/14 14:26:58;;;;;;;;;;;21.50;40.00;;;;;;5098451;28;19908;-81
2021/12/14 14:29:24;;;;;;;;;;;21.50;40.40;;;;;;5098123;28;20015;-79
2021/12/14 14:31:56;;;;;;;;;;;21.60;40.00;;;;;;5098099;28;19908;-79
2021/12/14 14:34:33;;;;;;;;;;;21.60;39.60;;;;;;5063677;28;19914;-78
2021/12/14 14:37:00;;;;;;;;;;;21.60;39.90;;;;;;5098662;28;19908;-83
2021/12/14 14:39:29;;;;;;;;;;;21.60;39.70;;;;;;5098490;28;20264;-79
2021/12/14 14:41:56;;;;;;;;;;;21.40;39.90;;;;;;5064794;28;19942;-81
2021/12/14 14:44:32;;;;;;;;;;;21.30;39.90;;;;;;5098290;28;19920;-82
2021/12/14 14:46:57;;;;;;;;;;;21.20;39.90;;;;;;5080010;28;19923;-81
2021/12/14 14:49:32;;;;;;;;;;;21.30;39.80;;;;;;5097695;28;19908;-77
2021/12/14 14:52:27;;;;;;;;;;;21.10;39.40;;;;;;5098046;28;19927;-79
2021/12/14 14:55:13;;;;;;;;;;;21.00;39.50;;;;;;5063032;28;19934;-79
2021/12/14 14:57:40;;;;;;;;;;;20.90;39.50;;;;;;5039239;28;19908;-78
2021/12/14 15:00:07;;;;;;;;;;;20.80;39.70;;;;;;5080159;28;19919;-77
2021/12/14 15:02:37;;;;;;;;;;;20.90;39.70;;;;;;5079734;28;19912;-81
2021/12/14 15:05:06;;;;;;;;;;;20.80;39.40;;;;;;5097939;28;19943;-79
2021/12/14 15:07:50;;;;;;;;;;;20.60;39.60;;;;;;5097928;28;19916;-78
2021/12/14 15:10:15;;;;;;;;;;;20.70;39.50;;;;;;5079592;28;20007;-79
2021/12/14 15:12:41;;;;;;;;;;;20.80;39.50;;;;;;5097716;28;19951;-79
2021/12/14 15:15:11;;;;;;;;;;;20.70;39.30;;;;;;5063259;28;20349;-79